Time;durP1;ratioP1;P1;durP2;ratioP2;P2;SDS_P1;SDS_P2;PMS_P1;PMS_P2;Temp;Humidity;BMP_temperature;BMP_pressure;BME280_temperature;BME280_humidity;BME280_pressure;Samples;Min_cycle;Max_cycle;Signal;HPM_P1;HPM_P2
2022/10/27 00:00:27;;;;;;;7.03;5.57;;;;;;;18.31;67.88;102338.59;5031632;28;20029;-82
2022/10/27 00:02:53;;;;;;;5.70;4.60;;;;;;;18.24;67.75;102324.13;5048615;28;20035;-81
2022/10/27 00:05:18;;;;;;;7.43;4.63;;;;;;;18.24;67.88;102328.53;5038218;28;20029;-81
2022/10/27 00:07:44;;;;;;;8.63;5.13;;;;;;;18.21;67.83;102324.00;5050505;28;20045;-82
2022/10/27 00:10:09;;;;;;;6.55;5.10;;;;;;;18.23;67.62;102324.09;5047846;28;20036;-81
2022/10/27 00:12:35;;;;;;;6.75;4.75;;;;;;;18.20;67.70;102313.34;5048606;28;20052;-81
2022/10/27 00:15:01;;;;;;;6.75;5.15;;;;;;;18.29;67.30;102335.84;5050300;28;20082;-80
2022/10/27 00:17:29;;;;;;;7.03;4.93;;;;;;;18.23;67.45;102317.06;5031604;28;20060;-80
2022/10/27 00:19:55;;;;;;;7.03;5.05;;;;;;;18.19;67.36;102319.47;5036481;28;20029;-82
2022/10/27 00:22:21;;;;;;;6.00;4.88;;;;;;;18.27;67.69;102326.03;5048966;28;20398;-82
2022/10/27 00:24:46;;;;;;;5.53;4.68;;;;;;;18.24;67.44;102331.16;5041028;28;20024;-81
2022/10/27 00:27:12;;;;;;;6.15;5.10;;;;;;;18.26;67.45;102330.41;5058462;28;20040;-80
2022/10/27 00:29:37;;;;;;;8.65;5.25;;;;;;;18.23;67.62;102332.91;5035818;28;20103;-80
2022/10/27 00:32:03;;;;;;;7.22;4.97;;;;;;;18.20;67.52;102331.84;5041870;28;20108;-82
2022/10/27 00:34:29;;;;;;;9.60;5.07;;;;;;;18.21;67.53;102325.75;5045468;28;20025;-81
2022/10/27 00:36:55;;;;;;;6.55;4.78;;;;;;;18.24;67.48;102332.06;5043871;28;20024;-82
2022/10/27 00:39:20;;;;;;;6.40;4.65;;;;;;;18.24;67.38;102331.16;5055163;28;20489;-82
2022/10/27 00:41:46;;;;;;;7.68;4.70;;;;;;;18.22;67.40;102331.09;5046883;28;20147;-82
2022/10/27 00:44:33;;;;;;;7.10;4.50;;;;;;;18.18;67.42;102325.59;5040472;28;20029;-82
2022/10/27 00:47:14;;;;;;;7.63;4.68;;;;;;;18.19;67.28;102325.66;5048997;28;20039;-82
2022/10/27 00:49:42;;;;;;;6.68;4.97;;;;;;;18.25;67.01;102327.72;5050138;28;20032;-82
2022/10/27 00:52:42;;;;;;;7.13;4.80;;;;;;;18.24;66.94;102325.88;5044652;28;20060;-82
2022/10/27 00:55:15;;;;;;;7.60;5.13;;;;;;;18.20;66.95;102327.50;5002264;28;20041;-82
2022/10/27 00:57:43;;;;;;;6.90;4.90;;;;;;;18.19;67.03;102330.97;5032665;28;20025;-82
2022/10/27 01:00:09;;;;;;;6.32;4.50;;;;;;;18.15;67.07;102329.00;5062610;28;20024;-82
2022/10/27 01:02:35;;;;;;;5.68;4.63;;;;;;;18.13;67.04;102329.75;5029855;28;20029;-82
2022/10/27 01:05:21;;;;;;;6.57;4.40;;;;;;;18.16;66.95;102335.19;5035236;28;20108;-82
2022/10/27 01:07:48;;;;;;;6.53;4.40;;;;;;;18.13;67.11;102335.06;5026056;28;20096;-82
2022/10/27 01:10:14;;;;;;;7.22;4.97;;;;;;;18.08;66.98;102311.94;5040749;28;20486;-81
2022/10/27 01:12:40;;;;;;;6.85;4.60;;;;;;;18.09;66.94;102308.44;5038008;28;20029;-81
2022/10/27 01:15:06;;;;;;;;;;;;;;;18.17;66.98;102329.97;5036249;28;20578;-81
2022/10/27 01:17:40;;;;;;;5.63;4.22;;;;;;;18.18;66.72;102328.22;5047193;28;20015;-82
2022/10/27 01:20:45;;;;;;;6.20;4.43;;;;;;;18.17;66.72;102332.63;5029201;28;20033;-85
2022/10/27 01:23:22;;;;;;;5.15;4.20;;;;;;;18.18;66.60;102328.22;5034593;28;20043;-82
2022/10/27 01:26:13;;;;;;;7.80;4.82;;;;;;;18.15;66.74;102336.94;5036449;28;20040;-81
2022/10/27 01:29:06;;;;;;;6.22;4.40;;;;;;;18.12;66.85;102336.81;5035736;28;20493;-82
2022/10/27 01:32:18;;;;;;;5.32;4.53;;;;;;;18.09;66.93;102339.28;5042683;28;20032;-81
2022/10/27 01:34:56;;;;;;;6.10;4.18;;;;;;;18.04;66.96;102319.66;5037636;28;20079;-81
2022/10/27 01:37:33;;;;;;;5.35;4.28;;;;;;;18.11;67.15;102337.63;5035560;28;20032;-82
2022/10/27 01:40:03;;;;;;;5.32;4.30;;;;;;;18.02;66.74;102318.69;5058627;28;20042;-82
2022/10/27 01:42:37;;;;;;;6.13;3.95;;;;;;;18.11;66.51;102337.63;5053270;28;20093;-81
2022/10/27 01:45:04;;;;;;;6.40;4.20;;;;;;;18.13;66.58;102342.97;5031681;28;20026;-81
2022/10/27 01:47:30;;;;;;;5.03;4.15;;;;;;;18.06;66.63;102328.56;5035253;28;20481;-81
2022/10/27 01:49:56;;;;;;;5.45;4.05;;;;;;;18.08;66.79;102340.13;5032122;28;20029;-82
2022/10/27 01:52:40;;;;;;;4.72;3.92;;;;;;;18.09;66.78;102345.47;5052421;28;20045;-81
2022/10/27 01:55:09;;;;;;;5.18;4.45;;;;;;;18.10;66.70;102349.03;5039287;28;20035;-82
2022/10/27 01:57:47;;;;;;;4.47;3.78;;;;;;;18.06;66.55;102334.75;5055223;28;20090;-80
2022/10/27 02:00:13;;;;;;;5.43;4.03;;;;;;;18.11;66.42;102343.78;5041823;28;20120;-81
2022/10/27 02:02:47;;;;;;;5.10;4.28;;;;;;;18.14;66.56;102351.00;5026165;28;20096;-81
2022/10/27 02:05:20;;;;;;;5.88;4.40;;;;;;;18.09;66.54;102344.56;5034376;28;20670;-81
2022/10/27 02:07:55;;;;;;;4.60;3.90;;;;;;;18.06;66.60;102355.91;5052528;28;20029;-81
2022/10/27 02:10:27;;;;;;;4.50;4.10;;;;;;;18.02;66.50;102339.81;5034422;28;20029;-82
2022/10/27 02:12:54;;;;;;;5.10;3.80;;;;;;;17.97;66.66;102336.97;5023638;28;20021;-82
2022/10/27 02:15:41;;;;;;;7.32;4.50;;;;;;;18.06;66.64;102347.06;5032261;28;20044;-82
2022/10/27 02:18:11;;;;;;;;;;;;;;;18.12;66.54;102344.72;5030748;28;20115;-82
2022/10/27 02:20:40;;;;;;;5.43;3.83;;;;;;;18.09;66.31;102349.84;5031861;28;19913;-81
2022/10/27 02:23:08;;;;;;;4.93;3.70;;;;;;;18.06;66.47;102355.91;5026365;28;20045;-81
2022/10/27 02:25:57;;;;;;;4.93;4.22;;;;;;;18.06;66.49;102357.66;5028377;28;20631;-82
2022/10/27 02:28:35;;;;;;;5.60;4.05;;;;;;;18.07;66.40;102356.81;5002654;28;20045;-81
2022/10/27 02:31:01;;;;;;;6.35;4.22;;;;;;;18.06;66.56;102362.94;5063662;28;20083;-82
2022/10/27 02:33:27;;;;;;;4.28;3.88;;;;;;;18.02;66.35;102356.59;5031272;28;20452;-82
2022/10/27 02:35:53;;;;;;;;;;;;;;;18.06;66.35;102362.94;5040978;28;20025;-82
2022/10/27 02:38:20;;;;;;;5.20;3.53;;;;;;;18.04;66.57;102368.13;5034236;28;20282;-83
2022/10/27 02:40:46;;;;;;;4.50;3.97;;;;;;;18.01;66.42;102370.66;5051954;28;20056;-83
2022/10/27 02:43:11;;;;;;;5.20;4.20;;;;;;;18.02;66.46;102382.13;5051695;28;20060;-83
2022/10/27 02:45:37;;;;;;;5.50;4.30;;;;;;;18.08;66.15;102375.38;5026822;28;20559;-83
2022/10/27 02:48:02;;;;;;;4.80;3.80;;;;;;;18.01;66.05;102362.72;5035214;28;20047;-83
2022/10/27 02:50:28;;;;;;;5.70;4.20;;;;;;;18.05;66.11;102379.63;5049274;28;20043;-84
2022/10/27 02:52:54;;;;;;;5.90;4.10;;;;;;;18.04;66.10;102375.19;5049979;28;20025;-83
2022/10/27 02:55:19;;;;;;;5.30;3.50;;;;;;;17.97;66.54;102373.03;5038218;28;20494;-83
2022/10/27 02:57:45;;;;;;;4.45;3.75;;;;;;;17.95;66.41;102372.06;5039332;28;20026;-83
2022/10/27 03:00:12;;;;;;;5.18;3.70;;;;;;;17.94;66.52;102370.25;5036159;28;20029;-83
2022/10/27 03:02:38;;;;;;;6.00;3.97;;;;;;;17.97;66.29;102373.97;5033665;28;20505;-83
2022/10/27 03:05:04;;;;;;;5.15;3.90;;;;;;;18.01;66.13;102386.50;5037986;28;20071;-82
2022/10/27 03:07:29;;;;;;;4.63;4.10;;;;;;;17.85;66.36;102368.97;5049070;28;20410;-83
2022/10/27 03:09:55;;;;;;;5.13;3.85;;;;;;;18.04;66.01;102389.28;5050746;28;20406;-81
2022/10/27 03:12:20;;;;;;;6.22;4.03;;;;;;;17.94;66.32;102383.47;5051044;28;20041;-83
2022/10/27 03:14:46;;;;;;;4.60;3.70;;;;;;;17.95;66.27;102380.91;5043158;28;20025;-83
2022/10/27 03:17:11;;;;;;;4.82;3.95;;;;;;;17.98;66.16;102388.09;5045741;28;20107;-82
2022/10/27 03:19:37;;;;;;;6.60;4.35;;;;;;;17.99;66.39;102398.75;5033650;28;20033;-81
2022/10/27 03:22:03;;;;;;;4.40;4.00;;;;;;;17.75;66.12;102352.53;5048107;28;20040;-81
2022/10/27 03:24:28;;;;;;;5.60;3.70;;;;;;;17.84;66.08;102375.09;5051703;28;20017;-82
2022/10/27 03:26:54;;;;;;;5.18;4.03;;;;;;;17.90;66.32;102392.97;5052026;28;20556;-83
2022/10/27 03:29:19;;;;;;;4.88;3.75;;;;;;;17.92;66.17;102390.41;5037443;28;20025;-82
2022/10/27 03:31:45;;;;;;;4.63;3.65;;;;;;;17.82;66.11;102375.78;5052011;28;20033;-82
2022/10/27 03:34:10;;;;;;;4.47;3.97;;;;;;;17.92;66.14;102399.25;5052178;28;20398;-81
2022/10/27 03:36:36;;;;;;;5.10;3.67;;;;;;;17.86;66.07;102381.38;5052095;28;20029;-83
2022/10/27 03:39:02;;;;;;;4.30;3.90;;;;;;;17.95;66.11;102393.19;5017597;28;20033;-83
2022/10/27 03:41:28;;;;;;;5.60;3.67;;;;;;;17.89;66.11;102383.25;5051605;28;20040;-82
2022/10/27 03:43:53;;;;;;;4.25;3.72;;;;;;;17.93;66.07;102392.22;5051492;28;20100;-82
2022/10/27 03:46:19;;;;;;;5.18;3.97;;;;;;;17.90;65.88;102409.72;5051581;28;20033;-82
2022/10/27 03:48:44;;;;;;;5.20;3.60;;;;;;;17.93;66.15;102410.72;5052715;28;20483;-82
2022/10/27 03:51:10;;;;;;;3.90;3.33;;;;;;;17.81;66.05;102403.06;5032267;28;20033;-82
2022/10/27 03:53:36;;;;;;;4.82;4.07;;;;;;;17.89;65.94;102410.59;5057979;28;20025;-82
2022/10/27 03:56:01;;;;;;;5.45;3.90;;;;;;;17.89;66.09;102415.88;5055327;28;20028;-82
2022/10/27 03:58:27;;;;;;;4.28;3.65;;;;;;;17.89;65.76;102405.28;5052075;28;20081;-82
2022/10/27 04:00:52;;;;;;;5.53;3.97;;;;;;;17.93;66.08;102413.38;5032031;28;20624;-80
2022/10/27 04:03:18;;;;;;;4.38;3.80;;;;;;;17.90;66.26;102416.75;5049288;28;20111;-82
2022/10/27 04:05:48;;;;;;;4.38;3.40;;;;;;;17.91;66.19;102421.25;5042640;28;20040;-82
2022/10/27 04:08:13;;;;;;;3.90;3.50;;;;;;;17.88;66.56;102421.06;5057881;28;20044;-82
2022/10/27 04:10:39;;;;;;;4.40;3.70;;;;;;;17.88;66.23;102421.06;5051449;28;20033;-82
2022/10/27 04:13:04;;;;;;;5.00;3.63;;;;;;;17.87;66.33;102425.44;5051130;28;20013;-82
2022/10/27 04:15:30;;;;;;;4.50;3.60;;;;;;;17.89;66.25;102423.78;5050409;28;20500;-81
2022/10/27 04:17:57;;;;;;;6.43;3.67;;;;;;;17.81;66.33;102422.47;5050864;28;20032;-82
2022/10/27 04:20:23;;;;;;;5.43;3.78;;;;;;;17.90;66.21;102427.34;5050579;28;20033;-81
2022/10/27 04:22:49;;;;;;;;;;;;;;;17.90;66.27;102425.59;5049484;28;20563;-81
2022/10/27 04:25:14;;;;;;;4.55;3.63;;;;;;;17.83;66.41;102412.00;5051073;28;19913;-81
2022/10/27 04:27:40;;;;;;;5.70;3.97;;;;;;;17.89;66.32;102429.09;5033039;28;20032;-81
2022/10/27 04:30:06;;;;;;;5.38;3.60;;;;;;;17.89;66.20;102430.81;5050099;28;20029;-82
2022/10/27 04:32:31;;;;;;;5.13;3.95;;;;;;;17.81;66.10;102419.81;5046128;28;20234;-81
2022/10/27 04:34:57;;;;;;;5.15;3.63;;;;;;;17.79;66.30;102429.41;5038225;28;20127;-81
2022/10/27 04:37:23;;;;;;;5.63;3.80;;;;;;;17.79;66.38;102436.44;5041915;28;20021;-82
2022/10/27 04:39:48;;;;;;;4.93;3.83;;;;;;;17.72;66.43;102418.47;5043256;28;20029;-87
2022/10/27 04:42:14;;;;;;;5.50;3.88;;;;;;;17.77;66.20;102423.13;5024314;28;20045;-83
2022/10/27 04:44:39;;;;;;;4.88;3.60;;;;;;;17.82;65.92;102434.91;5045923;28;20082;-83
2022/10/27 04:47:05;;;;;;;6.00;3.53;;;;;;;17.88;65.97;102447.50;5049073;28;20056;-83
2022/10/27 04:49:30;;;;;;;4.82;3.80;;;;;;;17.81;66.07;102446.25;5051322;28;20486;-82
2022/10/27 04:51:56;;;;;;;4.30;3.60;;;;;;;17.73;66.29;102439.66;5038352;28;20078;-82
2022/10/27 04:54:21;;;;;;;4.88;3.88;;;;;;;17.79;66.40;102450.53;5047764;28;20040;-81
2022/10/27 04:56:47;;;;;;;3.88;3.47;;;;;;;17.72;66.80;102453.72;5047528;28;20044;-85
2022/10/27 04:59:13;;;;;;;4.70;3.47;;;;;;;17.80;66.27;102452.38;5043397;28;20572;-81
2022/10/27 05:01:39;;;;;;;5.00;3.60;;;;;;;17.79;66.47;102453.19;5049882;28;20111;-82
2022/10/27 05:04:04;;;;;;;6.80;3.92;;;;;;;17.85;66.00;102461.47;5035164;28;20040;-83
2022/10/27 05:06:30;;;;;;;5.43;3.80;;;;;;;17.81;66.13;102462.09;5054682;28;20054;-82
2022/10/27 05:08:56;;;;;;;4.57;3.35;;;;;;;17.78;66.17;102466.31;5046686;28;20040;-81
2022/10/27 05:11:21;;;;;;;4.00;3.60;;;;;;;17.69;66.52;102466.75;5025131;28;20549;-82
2022/10/27 05:13:50;;;;;;;4.50;3.53;;;;;;;17.67;66.58;102465.75;5046461;28;20163;-83
2022/10/27 05:16:17;;;;;;;4.22;3.47;;;;;;;17.73;66.19;102475.75;5026701;28;20074;-83
2022/10/27 05:18:43;;;;;;;6.15;3.78;;;;;;;17.72;66.30;102490.72;5048735;28;20025;-83
2022/10/27 05:21:09;;;;;;;4.32;3.55;;;;;;;17.74;66.37;102496.97;5043878;28;20040;-83
2022/10/27 05:23:34;;;;;;;3.63;3.33;;;;;;;17.69;66.22;102498.44;5053450;28;20029;-82
2022/10/27 05:26:00;;;;;;;5.97;3.58;;;;;;;17.75;65.87;102505.81;5052118;28;20544;-81
2022/10/27 05:28:26;;;;;;;4.05;3.55;;;;;;;17.71;66.10;102504.72;5040890;28;20421;-82
2022/10/27 05:30:56;;;;;;;6.15;4.20;;;;;;;17.70;66.12;102503.84;5053132;28;20028;-81
2022/10/27 05:33:22;;;;;;;4.70;3.88;;;;;;;17.74;66.11;102515.47;5049369;28;20029;-82
2022/10/27 05:35:49;;;;;;;5.50;3.58;;;;;;;17.74;66.01;102514.53;5047474;28;20036;-82
2022/10/27 05:38:16;;;;;;;5.93;3.65;;;;;;;17.62;66.20;102504.25;5035843;28;20021;-84
2022/10/27 05:40:41;;;;;;;3.92;3.33;;;;;;;17.70;66.00;102529.34;5053830;28;20028;-83
2022/10/27 05:43:08;;;;;;;4.50;3.60;;;;;;;17.68;66.09;102529.25;5038079;28;20028;-84
2022/10/27 05:45:34;;;;;;;4.70;3.78;;;;;;;17.67;66.20;102531.81;5025764;28;20112;-84
2022/10/27 05:48:03;;;;;;;4.35;3.70;;;;;;;17.69;66.34;102540.72;5044268;28;20037;-82
2022/10/27 05:50:30;;;;;;;4.10;3.30;;;;;;;17.58;66.18;102528.69;5032760;28;20383;-84
2022/10/27 05:52:55;;;;;;;;;;;;;;;17.69;66.41;102538.09;5051657;28;20024;-83
2022/10/27 05:55:22;;;;;;;4.07;3.47;;;;;;;17.56;66.28;102519.78;5046423;28;19986;-84
2022/10/27 05:57:53;;;;;;;5.50;3.40;;;;;;;17.65;66.37;102536.09;5045866;28;20044;-84
2022/10/27 06:00:20;;;;;;;3.97;3.33;;;;;;;17.68;66.24;102542.47;5050964;28;20379;-84
2022/10/27 06:02:45;;;;;;;4.78;3.90;;;;;;;17.61;66.51;102544.69;5028337;28;20505;-84
2022/10/27 06:05:11;;;;;;;6.55;3.58;;;;;;;17.65;66.22;102555.53;5047018;28;20033;-83
2022/10/27 06:07:37;;;;;;;12.73;4.20;;;;;;;17.65;66.41;102554.59;5042728;28;20116;-83
2022/10/27 06:10:02;;;;;;;4.32;3.50;;;;;;;17.65;66.51;102557.25;5051250;28;20025;-84
2022/10/27 06:12:28;;;;;;;4.38;3.95;;;;;;;17.70;66.27;102559.31;5048036;28;20090;-83
2022/10/27 06:14:54;;;;;;;4.32;3.53;;;;;;;17.53;66.25;102539.03;5046087;28;20750;-83
2022/10/27 06:17:19;;;;;;;4.65;3.25;;;;;;;17.71;66.20;102554.94;5048946;28;20159;-83
2022/10/27 06:19:45;;;;;;;4.65;3.53;;;;;;;17.70;66.36;102558.41;5053349;28;20051;-84
2022/10/27 06:22:10;;;;;;;4.65;3.40;;;;;;;17.45;66.25;102524.50;5055392;28;20041;-83
2022/10/27 06:24:36;;;;;;;4.18;3.53;;;;;;;17.60;66.29;102553.47;5049619;28;20040;-83
2022/10/27 06:27:01;;;;;;;4.85;3.60;;;;;;;17.64;66.37;102559.00;5051012;28;20030;-82
2022/10/27 06:29:27;;;;;;;4.90;3.70;;;;;;;17.60;66.36;102564.03;5058074;28;20028;-83
2022/10/27 06:31:52;;;;;;;4.70;3.55;;;;;;;17.64;66.13;102566.91;5043777;28;20024;-84
2022/10/27 06:34:18;;;;;;;6.07;3.63;;;;;;;17.57;66.23;102554.22;5047640;28;20167;-83
2022/10/27 06:36:44;;;;;;;4.07;3.28;;;;;;;17.68;66.27;102568.00;5052148;28;20151;-84
2022/10/27 06:39:09;;;;;;;4.18;3.40;;;;;;;17.67;66.18;102569.75;5052103;28;20497;-84
2022/10/27 06:41:35;;;;;;;4.82;3.83;;;;;;;17.68;66.19;102568.91;5046882;28;20033;-83
2022/10/27 06:44:04;;;;;;;4.78;3.55;;;;;;;17.63;66.32;102567.75;5047929;28;20029;-83
2022/10/27 06:46:30;;;;;;;4.50;3.90;;;;;;;17.71;66.31;102576.06;5048551;28;20434;-82
2022/10/27 06:48:55;;;;;;;4.47;3.70;;;;;;;17.66;66.27;102572.28;5047205;28;20025;-83
2022/10/27 06:51:21;;;;;;;5.15;3.67;;;;;;;17.50;66.54;102546.75;5031966;28;20098;-83
2022/10/27 06:53:47;;;;;;;4.72;3.70;;;;;;;17.55;66.33;102557.59;5047407;28;20033;-84
2022/10/27 06:56:12;;;;;;;4.72;3.90;;;;;;;17.63;66.36;102561.53;5056829;28;20387;-84
2022/10/27 06:58:39;;;;;;;4.40;3.40;;;;;;;17.53;66.21;102540.75;5045335;28;20052;-85
2022/10/27 07:01:05;;;;;;;;;;;;;;;17.72;66.04;102569.09;5047394;28;20025;-85
2022/10/27 07:03:33;;;;;;;5.18;3.83;;;;;;;17.64;66.29;102556.34;5032859;28;19920;-83
2022/10/27 07:05:59;;;;;;;4.68;4.10;;;;;;;17.64;66.27;102569.56;5047578;28;20104;-84
2022/10/27 07:08:25;;;;;;;4.47;3.40;;;;;;;17.50;66.15;102531.84;5049922;28;20494;-84
2022/10/27 07:10:52;;;;;;;4.75;3.63;;;;;;;17.61;66.43;102563.19;5050949;28;20096;-83
2022/10/27 07:13:18;;;;;;;4.95;3.38;;;;;;;17.67;66.38;102580.31;5060658;28;20081;-83
2022/10/27 07:15:46;;;;;;;6.28;3.38;;;;;;;17.69;66.38;102578.66;5050780;28;20021;-84
2022/10/27 07:18:12;;;;;;;4.45;3.72;;;;;;;17.65;66.61;102573.09;5051010;28;20036;-84
2022/10/27 07:20:38;;;;;;;4.70;3.55;;;;;;;17.68;66.45;102578.56;5046780;28;20532;-85
2022/10/27 07:23:04;;;;;;;5.22;3.47;;;;;;;17.67;66.47;102580.31;5049894;28;20125;-85
2022/10/27 07:25:31;;;;;;;4.38;3.75;;;;;;;17.67;66.62;102577.66;5028921;28;20124;-84
2022/10/27 07:27:57;;;;;;;4.57;3.45;;;;;;;17.66;66.73;102577.56;5013964;28;20139;-82
2022/10/27 07:30:25;;;;;;;4.53;3.67;;;;;;;17.68;66.66;102586.50;5048946;28;20033;-82
2022/10/27 07:32:51;;;;;;;5.07;3.40;;;;;;;17.67;66.90;102582.00;5049040;28;20102;-82
2022/10/27 07:35:16;;;;;;;4.70;3.70;;;;;;;17.62;66.83;102580.88;5046464;28;20493;-82
2022/10/27 07:37:43;;;;;;;5.22;3.88;;;;;;;17.57;66.80;102571.78;5015845;28;20064;-83
2022/10/27 07:40:11;;;;;;;4.15;3.63;;;;;;;17.58;66.80;102577.16;5057897;28;20021;-83
2022/10/27 07:42:42;;;;;;;6.40;3.70;;;;;;;17.60;66.94;102583.41;5053053;28;20457;-84
2022/10/27 07:45:08;;;;;;;4.95;3.58;;;;;;;17.61;66.93;102585.25;5028432;28;20112;-81
2022/10/27 07:47:34;;;;;;;3.83;3.35;;;;;;;17.66;66.93;102598.72;5039192;28;20112;-82
2022/10/27 07:49:59;;;;;;;7.13;4.00;;;;;;;17.63;66.71;102586.25;5033304;28;20029;-83
2022/10/27 07:52:25;;;;;;;6.45;3.85;;;;;;;17.68;66.74;102603.25;5033147;28;20026;-83
2022/10/27 07:54:50;;;;;;;8.70;3.75;;;;;;;17.65;66.73;102595.16;5019250;28;20544;-81
2022/10/27 07:57:16;;;;;;;10.43;4.00;;;;;;;17.65;66.86;102599.53;5037836;28;20025;-82
2022/10/27 07:59:41;;;;;;;10.70;4.18;;;;;;;17.64;66.89;102603.91;5038043;28;20093;-82
2022/10/27 08:02:10;;;;;;;4.05;3.45;;;;;;;17.54;67.04;102598.94;5032492;28;20170;-82
2022/10/27 08:04:36;;;;;;;6.38;3.78;;;;;;;17.54;67.15;102593.66;5036766;28;20033;-80
2022/10/27 08:07:01;;;;;;;6.72;3.50;;;;;;;17.55;67.08;102598.13;5051018;28;20044;-82
2022/10/27 08:09:27;;;;;;;6.03;3.60;;;;;;;17.59;66.86;102593.91;5053996;28;20482;-81
2022/10/27 08:11:52;;;;;;;7.78;3.63;;;;;;;17.58;66.87;102597.38;5047042;28;20029;-82
2022/10/27 08:14:18;;;;;;;5.32;3.70;;;;;;;17.59;66.81;102602.75;5045845;28;20040;-82
2022/10/27 08:16:44;;;;;;;7.70;3.72;;;;;;;17.52;66.93;102592.66;5048495;28;20028;-82
2022/10/27 08:19:15;;;;;;;4.57;3.38;;;;;;;17.56;66.95;102602.56;5039353;28;20032;-83
2022/10/27 08:21:41;;;;;;;6.65;3.53;;;;;;;17.49;66.63;102580.19;5014726;28;20123;-83
2022/10/27 08:24:06;;;;;;;5.93;3.78;;;;;;;17.63;66.79;102602.09;5028396;28;20025;-83
2022/10/27 08:26:32;;;;;;;5.57;3.60;;;;;;;17.60;66.70;102601.03;5028278;28;20123;-82
2022/10/27 08:28:59;;;;;;;7.15;3.80;;;;;;;17.50;66.83;102586.38;5034061;28;20087;-81
2022/10/27 08:31:24;;;;;;;5.38;3.60;;;;;;;17.62;66.74;102602.91;5031965;28;20120;-83
2022/10/27 08:33:51;;;;;;;4.82;3.30;;;;;;;17.61;66.74;102605.47;5037701;28;20105;-83
2022/10/27 08:36:18;;;;;;;4.72;3.70;;;;;;;17.63;66.75;102614.38;5035536;28;20029;-83
2022/10/27 08:38:47;;;;;;;5.05;3.47;;;;;;;17.56;66.93;102601.66;5016853;28;20493;-82
2022/10/27 08:41:55;;;;;;;5.65;3.53;;;;;;;17.65;66.73;102604.81;5032300;28;20021;-82
2022/10/27 08:44:32;;;;;;;3.63;3.30;;;;;;;17.45;66.68;102580.84;5016704;28;20109;-82
2022/10/27 08:47:04;;;;;;;6.05;3.42;;;;;;;17.62;66.87;102613.47;5038678;28;20040;-82
2022/10/27 08:49:44;;;;;;;7.53;3.55;;;;;;;17.62;66.62;102608.19;5030183;28;20021;-82
2022/10/27 08:52:25;;;;;;;5.07;3.38;;;;;;;17.65;66.65;102610.09;5011912;28;20022;-83
2022/10/27 08:54:53;;;;;;;5.63;3.60;;;;;;;17.57;66.38;102598.19;5025761;28;20474;-82
2022/10/27 08:57:25;;;;;;;5.60;3.78;;;;;;;17.63;66.58;102611.75;5015117;28;20025;-83
2022/10/27 08:59:52;;;;;;;4.95;3.63;;;;;;;17.68;66.73;102618.19;5006655;28;20546;-82
2022/10/27 09:02:39;;;;;;;4.40;3.47;;;;;;;17.68;66.70;102607.63;5009747;28;20026;-82
2022/10/27 09:05:17;;;;;;;5.18;3.38;;;;;;;17.48;66.58;102580.09;5044207;28;21642;-82
2022/10/27 09:07:55;;;;;;;4.13;3.05;;;;;;;17.70;66.73;102616.56;5020375;28;20057;-82
2022/10/27 09:10:40;;;;;;;4.28;2.97;;;;;;;17.60;66.66;102593.09;5032377;28;20399;-82
2022/10/27 09:13:18;;;;;;;5.95;3.30;;;;;;;17.63;66.68;102599.47;5029967;28;20025;-82
2022/10/27 09:15:46;;;;;;;5.32;3.47;;;;;;;17.73;66.45;102610.50;5029093;28;20056;-81
2022/10/27 09:18:39;;;;;;;5.00;3.47;;;;;;;17.75;66.46;102609.75;5009203;28;20025;-82
2022/10/27 09:21:11;;;;;;;6.60;3.90;;;;;;;17.68;66.53;102597.97;5019567;28;20025;-81
2022/10/27 09:23:41;;;;;;;3.80;2.95;;;;;;;17.75;66.51;102611.50;5029707;28;20430;-81
2022/10/27 09:26:07;;;;;;;4.78;3.33;;;;;;;17.74;66.51;102613.25;5046231;28;20041;-82
2022/10/27 09:28:48;;;;;;;3.33;2.95;;;;;;;17.76;66.27;102614.25;5040807;28;20056;-81
2022/10/27 09:31:16;;;;;;;5.65;3.22;;;;;;;17.68;66.40;102589.13;5048312;28;20029;-82
2022/10/27 09:33:53;;;;;;;4.18;3.28;;;;;;;17.74;66.59;102609.69;5032544;28;20467;-81
2022/10/27 09:36:21;;;;;;;6.25;3.38;;;;;;;17.73;67.22;102608.78;5017957;28;20033;-83
2022/10/27 09:38:47;;;;;;;3.50;3.00;;;;;;;17.67;66.51;102587.31;5016904;28;20489;-83
2022/10/27 09:41:13;;;;;;;3.67;3.10;;;;;;;17.65;66.26;102581.97;5018964;28;20022;-81
2022/10/27 09:43:38;;;;;;;4.75;3.38;;;;;;;17.66;67.34;102590.78;5033696;28;20026;-82
2022/10/27 09:46:12;;;;;;;4.20;3.35;;;;;;;17.70;67.70;102613.91;5034098;28;21237;-83
2022/10/27 09:48:37;;;;;;;5.90;3.50;;;;;;;17.81;66.74;102611.84;5013487;28;20034;-83
2022/10/27 09:51:24;;;;;;;6.65;3.33;;;;;;;17.92;66.26;102605.44;5017129;28;20071;-82
2022/10/27 09:53:51;;;;;;;4.00;3.17;;;;;;;17.92;66.37;102608.06;5015767;28;20033;-82
2022/10/27 09:56:29;;;;;;;5.45;3.35;;;;;;;17.93;66.25;102603.69;5032185;28;20395;-83
2022/10/27 09:58:57;;;;;;;5.13;3.40;;;;;;;17.94;65.82;102606.41;5015685;28;20021;-82
2022/10/27 10:01:44;;;;;;;4.97;3.20;;;;;;;17.96;66.43;102602.13;5033291;28;20025;-82
2022/10/27 10:04:29;;;;;;;6.70;3.38;;;;;;;17.70;66.41;102555.78;5040952;28;20082;-81
2022/10/27 10:07:01;;;;;;;5.60;3.13;;;;;;;17.95;66.93;102596.75;5012945;28;20478;-82
2022/10/27 10:09:38;;;;;;;5.50;3.28;;;;;;;17.92;67.22;102586.03;5020987;28;20024;-82
2022/10/27 10:12:18;;;;;;;4.90;2.97;;;;;;;17.97;67.24;102598.66;5017560;28;20025;-82
2022/10/27 10:14:43;;;;;;;5.00;3.60;;;;;;;18.02;67.35;102586.59;5047427;28;20037;-82
2022/10/27 10:17:21;;;;;;;4.65;3.38;;;;;;;17.99;67.37;102589.09;5035705;28;20452;-81
2022/10/27 10:19:47;;;;;;;4.72;3.05;;;;;;;17.97;68.36;102593.38;5021749;28;20033;-82
2022/10/27 10:22:23;;;;;;;5.53;3.08;;;;;;;17.87;67.90;102567.28;5023997;28;20053;-82
2022/10/27 10:24:49;;;;;;;4.13;3.28;;;;;;;18.03;67.83;102588.41;5035906;28;20029;-82
2022/10/27 10:27:28;;;;;;;6.85;3.38;;;;;;;17.73;68.07;102545.34;5031668;28;20048;-82
2022/10/27 10:29:55;;;;;;;4.65;3.10;;;;;;;18.05;68.29;102583.19;5028205;28;20032;-82
2022/10/27 10:32:30;;;;;;;5.72;2.88;;;;;;;18.00;68.71;102580.31;5028376;28;20025;-83
2022/10/27 10:34:59;;;;;;;7.53;3.13;;;;;;;17.88;68.86;102567.34;5021223;28;20025;-81
2022/10/27 10:37:45;;;;;;;4.82;3.00;;;;;;;18.00;68.58;102577.66;5035295;28;20029;-82
2022/10/27 10:40:15;;;;;;;5.20;2.90;;;;;;;17.97;68.60;102577.50;5039285;28;20025;-82
2022/10/27 10:42:45;;;;;;;4.32;3.17;;;;;;;18.05;68.42;102572.59;5052236;28;20453;-80
2022/10/27 10:45:19;;;;;;;5.00;3.05;;;;;;;18.00;68.70;102574.13;5034868;28;20025;-81
2022/10/27 10:47:47;;;;;;;6.30;2.88;;;;;;;18.01;69.07;102584.78;5051787;28;20160;-81
2022/10/27 10:50:13;;;;;;;6.57;3.47;;;;;;;18.03;69.01;102585.78;5031533;28;20033;-81
2022/10/27 10:52:39;;;;;;;7.72;3.35;;;;;;;18.04;68.85;102584.94;5035037;28;20025;-81
2022/10/27 10:55:06;;;;;;;4.82;2.92;;;;;;;18.08;69.18;102586.00;5038244;28;20474;-82
2022/10/27 10:57:38;;;;;;;4.80;3.17;;;;;;;18.09;69.14;102572.84;5018477;28;20056;-81
2022/10/27 11:00:05;;;;;;;3.78;2.90;;;;;;;18.02;69.28;102573.38;5050665;28;20031;-83
2022/10/27 11:02:32;;;;;;;4.80;2.90;;;;;;;18.12;69.42;102569.47;5031425;28;20037;-81
2022/10/27 11:05:10;;;;;;;4.70;3.35;;;;;;;18.07;69.26;102561.28;5047702;28;20028;-82
2022/10/27 11:07:37;;;;;;;4.43;3.30;;;;;;;18.03;69.50;102561.03;5033263;28;20076;-82
2022/10/27 11:10:11;;;;;;;4.82;3.10;;;;;;;18.13;69.26;102560.69;5052042;28;20528;-81
2022/10/27 11:12:39;;;;;;;3.90;3.38;;;;;;;18.05;69.37;102554.09;5052480;28;20413;-81
2022/10/27 11:15:13;;;;;;;5.45;3.15;;;;;;;18.14;69.42;102556.31;5051713;28;20025;-80
2022/10/27 11:17:40;;;;;;;5.13;3.28;;;;;;;17.92;69.56;102527.88;5031016;28;20479;-81
2022/10/27 11:20:11;;;;;;;6.70;3.30;;;;;;;18.00;69.92;102547.69;5034554;28;20024;-82
2022/10/27 11:22:37;;;;;;;5.15;3.20;;;;;;;18.11;69.48;102559.72;5031619;28;20036;-84
2022/10/27 11:25:05;;;;;;;6.70;3.40;;;;;;;18.17;69.52;102564.41;5025701;28;20048;-83
2022/10/27 11:27:42;;;;;;;4.28;3.53;;;;;;;18.08;70.15;102552.53;5029641;28;20025;-82
2022/10/27 11:30:18;;;;;;;4.45;3.38;;;;;;;18.16;69.88;102555.59;5029633;28;20017;-83
2022/10/27 11:32:56;;;;;;;5.70;3.25;;;;;;;18.19;69.96;102557.47;5031502;28;20021;-81
2022/10/27 11:35:32;;;;;;;5.82;3.50;;;;;;;18.04;70.07;102534.69;5049841;28;20021;-83